Time;durP1;ratioP1;P1;durP2;ratioP2;P2;SDS_P1;SDS_P2;PMS_P1;PMS_P2;Temp;Humidity;BMP_temperature;BMP_pressure;BME280_temperature;BME280_humidity;BME280_pressure;Samples;Min_cycle;Max_cycle;Signal;HPM_P1;HPM_P2
2023/06/30 00:02:21;;;;;;;11.68;6.10;;;15.30;81.40;;;;;;4981653;28;20045;-73
2023/06/30 00:04:47;;;;;;;10.32;5.18;;;15.10;81.60;;;;;;4984435;28;20034;-72
2023/06/30 00:07:13;;;;;;;12.00;6.18;;;15.10;81.80;;;;;;4979513;28;20108;-74
2023/06/30 00:09:39;;;;;;;16.58;6.63;;;15.10;81.70;;;;;;4984257;28;20045;-74
2023/06/30 00:12:05;;;;;;;11.70;5.88;;;15.10;81.80;;;;;;4998125;28;20038;-74
2023/06/30 00:14:31;;;;;;;13.95;6.88;;;15.10;81.90;;;;;;4983385;28;20077;-73
2023/06/30 00:16:56;;;;;;;12.07;6.35;;;15.00;82.10;;;;;;4982528;28;20494;-73
2023/06/30 00:19:24;;;;;;;15.45;7.53;;;15.00;82.20;;;;;;4983555;28;20022;-73
2023/06/30 00:21:52;;;;;;;12.00;7.35;;;14.90;82.20;;;;;;4984565;28;20088;-75
2023/06/30 00:24:18;;;;;;;14.30;7.00;;;14.80;82.40;;;;;;4980831;28;20034;-73
2023/06/30 00:26:44;;;;;;;13.77;6.60;;;14.70;82.80;;;;;;4979252;28;20472;-73
2023/06/30 00:29:10;;;;;;;12.38;6.28;;;14.70;82.90;;;;;;4985281;28;20537;-73
2023/06/30 00:31:36;;;;;;;12.40;6.72;;;14.70;82.70;;;;;;4980930;28;20474;-74
2023/06/30 00:34:02;;;;;;;11.73;6.35;;;14.70;82.60;;;;;;4983102;28;20035;-74
2023/06/30 00:36:29;;;;;;;13.07;6.60;;;14.70;82.50;;;;;;4978539;28;20042;-73
2023/06/30 00:38:54;;;;;;;17.60;7.43;;;14.70;82.50;;;;;;4986585;28;20026;-74
2023/06/30 00:41:21;;;;;;;14.27;6.95;;;14.60;82.50;;;;;;4978401;28;20041;-73
2023/06/30 00:43:47;;;;;;;15.27;7.13;;;14.50;82.70;;;;;;4986189;28;20038;-76
2023/06/30 00:46:15;;;;;;;12.85;6.80;;;14.60;83.10;;;;;;4997338;28;20093;-77
2023/06/30 00:48:41;;;;;;;14.43;6.85;;;14.60;83.00;;;;;;4982337;28;20057;-75
2023/06/30 00:51:08;;;;;;;12.30;6.90;;;14.50;82.90;;;;;;4984943;28;20045;-75
2023/06/30 00:53:34;;;;;;;15.00;7.30;;;14.40;83.00;;;;;;4985715;28;20034;-75
2023/06/30 00:55:59;;;;;;;13.82;8.27;;;14.40;83.20;;;;;;4979324;28;20391;-73
2023/06/30 00:58:25;;;;;;;12.02;7.07;;;14.30;83.30;;;;;;4983891;28;20117;-73
2023/06/30 01:00:54;;;;;;;11.48;6.63;;;14.30;83.50;;;;;;4983325;28;20133;-72
2023/06/30 01:03:42;;;;;;;13.13;6.97;;;14.30;83.40;;;;;;4983875;28;20118;-74
2023/06/30 01:06:21;;;;;;;13.45;6.68;;;14.30;83.40;;;;;;4985267;28;20031;-72
2023/06/30 01:09:00;;;;;;;14.63;6.78;;;14.30;83.40;;;;;;4974987;28;20033;-77
2023/06/30 01:11:26;;;;;;;11.90;6.72;;;14.30;83.20;;;;;;4983699;28;20041;-73
2023/06/30 01:13:54;;;;;;;10.20;6.78;;;14.30;83.10;;;;;;4981655;28;20062;-75
2023/06/30 01:16:21;;;;;;;13.07;7.43;;;14.20;82.70;;;;;;4985435;28;20438;-75
2023/06/30 01:18:52;;;;;;;12.13;7.45;;;14.30;82.60;;;;;;4974310;28;20065;-73
2023/06/30 01:21:21;;;;;;;11.65;6.97;;;14.20;82.60;;;;;;4978737;28;20112;-73
2023/06/30 01:23:54;;;;;;;11.60;6.80;;;14.20;82.50;;;;;;4984217;28;20077;-75
2023/06/30 01:26:21;;;;;;;14.93;7.70;;;14.20;82.30;;;;;;4978032;28;20043;-73
2023/06/30 01:28:48;;;;;;;12.23;6.60;;;14.30;82.20;;;;;;4981407;28;20022;-74
2023/06/30 01:31:14;;;;;;;13.07;6.90;;;14.20;82.00;;;;;;4980274;28;20114;-73
2023/06/30 01:33:40;;;;;;;10.57;6.68;;;14.20;81.90;;;;;;4980189;28;20030;-73
2023/06/30 01:36:07;;;;;;;14.30;6.80;;;14.10;82.00;;;;;;4983695;28;20112;-72
2023/06/30 01:38:32;;;;;;;14.23;7.25;;;14.10;82.20;;;;;;4994873;28;20194;-73
2023/06/30 01:41:00;;;;;;;12.13;7.18;;;14.10;82.40;;;;;;4996939;28;20034;-72
2023/06/30 01:43:27;;;;;;;11.93;7.15;;;14.10;82.70;;;;;;4973278;28;20491;-73
2023/06/30 01:45:53;;;;;;;12.63;7.35;;;14.00;82.80;;;;;;4976659;28;20050;-74
2023/06/30 01:48:19;;;;;;;12.13;7.53;;;14.00;82.90;;;;;;4983834;28;20073;-72
2023/06/30 01:50:45;;;;;;;11.57;6.38;;;14.00;82.60;;;;;;4984011;28;20077;-74
2023/06/30 01:53:11;;;;;;;13.05;6.93;;;14.00;82.60;;;;;;4981980;28;20133;-74
2023/06/30 01:55:38;;;;;;;12.07;7.28;;;14.00;82.50;;;;;;4981636;28;20022;-74
2023/06/30 01:58:04;;;;;;;12.48;7.38;;;13.90;82.30;;;;;;4993778;28;20049;-73
2023/06/30 02:00:30;;;;;;;10.82;6.45;;;13.80;82.70;;;;;;4984880;28;20105;-75
2023/06/30 02:02:57;;;;;;;11.30;7.30;;;13.80;82.90;;;;;;4979119;28;20033;-72
2023/06/30 02:05:22;;;;;;;12.35;7.20;;;13.80;82.90;;;;;;4985819;28;20070;-74
2023/06/30 02:07:48;;;;;;;12.07;6.65;;;13.80;82.80;;;;;;5001133;28;20116;-73
2023/06/30 02:10:14;;;;;;;11.57;6.63;;;13.80;82.70;;;;;;4984798;28;20462;-77
2023/06/30 02:12:40;;;;;;;14.43;6.78;;;13.80;82.80;;;;;;4984012;28;20027;-76
2023/06/30 02:15:06;;;;;;;13.90;7.22;;;13.80;82.70;;;;;;4982571;28;20046;-75
2023/06/30 02:17:32;;;;;;;10.75;6.20;;;13.80;82.50;;;;;;5003017;28;20030;-73
2023/06/30 02:20:06;;;;;;;10.80;6.32;;;13.70;82.40;;;;;;4986399;28;20643;-73
2023/06/30 02:22:32;;;;;;;9.47;6.47;;;13.70;82.50;;;;;;4991849;28;20081;-73
2023/06/30 02:24:58;;;;;;;12.85;6.93;;;13.60;82.60;;;;;;5001725;28;20413;-74
2023/06/30 02:27:24;;;;;;;13.70;7.03;;;13.60;82.70;;;;;;4994508;28;20026;-75
2023/06/30 02:29:50;;;;;;;10.82;6.80;;;13.60;82.80;;;;;;4981735;28;20030;-74
2023/06/30 02:32:16;;;;;;;12.63;7.38;;;13.60;82.80;;;;;;4985166;28;20346;-74
2023/06/30 02:34:41;;;;;;;11.32;6.95;;;13.50;82.80;;;;;;4979843;28;20030;-76
2023/06/30 02:37:07;;;;;;;11.70;6.97;;;13.50;82.90;;;;;;4972851;28;20128;-73
2023/06/30 02:39:33;;;;;;;12.52;7.93;;;13.50;82.90;;;;;;4977383;28;20514;-76
2023/06/30 02:41:58;;;;;;;12.15;7.03;;;13.50;83.00;;;;;;4977717;28;20046;-75
2023/06/30 02:44:24;;;;;;;10.85;6.18;;;13.50;83.00;;;;;;4975063;28;20490;-78
2023/06/30 02:46:50;;;;;;;16.00;7.15;;;13.50;82.90;;;;;;4980487;28;20342;-75
2023/06/30 02:49:16;;;;;;;10.95;7.25;;;13.40;83.00;;;;;;4983141;28;20467;-73
2023/06/30 02:51:41;;;;;;;12.05;7.38;;;13.40;83.00;;;;;;4978613;28;20744;-77
2023/06/30 02:54:07;;;;;;;14.82;8.15;;;13.40;83.00;;;;;;4979931;28;20034;-71
2023/06/30 02:56:33;;;;;;;11.55;6.75;;;13.30;83.00;;;;;;4984015;28;20125;-72
2023/06/30 02:58:58;;;;;;;14.95;7.97;;;13.30;83.20;;;;;;4980887;28;20661;-73
2023/06/30 03:01:24;;;;;;;12.00;7.47;;;13.30;83.30;;;;;;4981161;28;20031;-72
2023/06/30 03:03:52;;;;;;;13.85;8.50;;;13.20;83.50;;;;;;4979721;28;20538;-73
2023/06/30 03:06:19;;;;;;;11.93;7.95;;;13.30;83.60;;;;;;4982963;28;20125;-73
2023/06/30 03:08:45;;;;;;;16.95;8.10;;;13.30;83.70;;;;;;4985156;28;20041;-74
2023/06/30 03:11:11;;;;;;;12.80;7.82;;;13.30;83.80;;;;;;5000064;28;20054;-74
2023/06/30 03:13:37;;;;;;;12.88;7.18;;;13.30;83.80;;;;;;4984400;28;20039;-73
2023/06/30 03:16:03;;;;;;;12.98;7.85;;;13.30;83.70;;;;;;4982659;28;20137;-73
2023/06/30 03:18:28;;;;;;;13.52;8.10;;;13.30;83.60;;;;;;4990301;28;20113;-73
2023/06/30 03:20:54;;;;;;;13.15;7.57;;;13.30;83.60;;;;;;4987509;28;20118;-72
2023/06/30 03:23:20;;;;;;;14.48;7.65;;;13.30;83.60;;;;;;4986984;28;20125;-72
2023/06/30 03:25:47;;;;;;;10.82;7.10;;;13.20;83.60;;;;;;4975625;28;20435;-76
2023/06/30 03:28:13;;;;;;;12.25;7.85;;;13.20;83.60;;;;;;4965228;28;20038;-74
2023/06/30 03:30:38;;;;;;;14.73;7.32;;;13.20;83.50;;;;;;4970678;28;20026;-72
2023/06/30 03:33:04;;;;;;;12.98;7.90;;;13.20;83.30;;;;;;4980807;28;20030;-74
2023/06/30 03:35:30;;;;;;;12.15;7.60;;;13.10;83.30;;;;;;4981501;28;20035;-77
2023/06/30 03:37:55;;;;;;;10.88;6.85;;;13.10;83.30;;;;;;4983648;28;20035;-74
2023/06/30 03:40:21;;;;;;;14.25;7.70;;;13.10;82.90;;;;;;4982918;28;20089;-72
2023/06/30 03:42:46;;;;;;;11.52;7.13;;;13.10;83.10;;;;;;4983542;28;20027;-73
2023/06/30 03:45:12;;;;;;;12.30;6.93;;;13.10;83.30;;;;;;4980069;28;20050;-74
2023/06/30 03:47:38;;;;;;;11.60;7.60;;;13.10;83.20;;;;;;4986186;28;20027;-76
2023/06/30 03:50:05;;;;;;;11.60;7.10;;;13.00;82.90;;;;;;4988303;28;20148;-73
2023/06/30 03:52:31;;;;;;;10.90;6.80;;;13.10;83.10;;;;;;4979402;28;20072;-73
2023/06/30 03:54:56;;;;;;;11.73;6.78;;;13.10;83.20;;;;;;4982664;28;20133;-74
2023/06/30 03:57:22;;;;;;;12.13;7.50;;;13.10;83.20;;;;;;4986491;28;20026;-72
2023/06/30 03:59:48;;;;;;;14.38;7.30;;;13.10;83.10;;;;;;4983785;28;20034;-73
2023/06/30 04:02:13;;;;;;;14.60;8.15;;;13.20;83.00;;;;;;4985929;28;20041;-74
2023/06/30 04:04:39;;;;;;;13.75;6.90;;;13.20;83.10;;;;;;4985184;28;20113;-74
2023/06/30 04:07:05;;;;;;;11.88;7.53;;;13.30;83.10;;;;;;4980775;28;20031;-74
2023/06/30 04:09:31;;;;;;;11.63;7.18;;;13.30;82.80;;;;;;4982890;28;20058;-73
2023/06/30 04:11:57;;;;;;;13.10;7.25;;;13.30;82.60;;;;;;4978162;28;20540;-72
2023/06/30 04:14:22;;;;;;;14.77;8.30;;;13.40;82.20;;;;;;4982928;28;20054;-72
2023/06/30 04:16:48;;;;;;;13.52;8.45;;;13.40;81.90;;;;;;4984448;28;20411;-74
2023/06/30 04:19:14;;;;;;;13.50;8.85;;;13.40;82.10;;;;;;4985448;28;20208;-72
2023/06/30 04:21:39;;;;;;;11.98;7.60;;;13.60;82.30;;;;;;4984770;28;20034;-72
2023/06/30 04:24:05;;;;;;;13.25;7.97;;;13.60;82.40;;;;;;4981021;28;20062;-71
2023/06/30 04:26:31;;;;;;;12.82;8.27;;;13.60;82.20;;;;;;4975378;28;20561;-73
2023/06/30 04:28:57;;;;;;;13.00;7.88;;;13.70;82.20;;;;;;4984673;28;20157;-75
2023/06/30 04:31:23;;;;;;;14.98;7.22;;;13.80;82.20;;;;;;5000661;28;20482;-73
2023/06/30 04:33:49;;;;;;;12.20;7.82;;;13.80;82.00;;;;;;4978579;28;20089;-74
2023/06/30 04:36:17;;;;;;;11.85;7.75;;;13.90;81.80;;;;;;4981619;28;20038;-73
2023/06/30 04:38:44;;;;;;;12.43;7.47;;;13.90;81.40;;;;;;4986826;28;20037;-74
2023/06/30 04:41:10;;;;;;;12.27;8.52;;;14.00;81.40;;;;;;4969443;28;20689;-73
2023/06/30 04:43:36;;;;;;;15.43;8.57;;;14.00;81.40;;;;;;4962391;28;20031;-73
2023/06/30 04:46:01;;;;;;;14.80;9.05;;;14.00;81.40;;;;;;4961999;28;20174;-72
2023/06/30 04:48:27;;;;;;;13.02;8.18;;;14.10;81.40;;;;;;4960858;28;20589;-76
2023/06/30 04:50:53;;;;;;;14.80;8.30;;;14.30;81.30;;;;;;4962167;28;20494;-74
2023/06/30 04:53:18;;;;;;;13.88;8.75;;;14.30;80.90;;;;;;4961217;28;20046;-73
2023/06/30 04:55:44;;;;;;;15.88;8.43;;;14.30;80.90;;;;;;4966496;28;20019;-73
2023/06/30 04:58:10;;;;;;;16.33;9.35;;;14.40;80.80;;;;;;4962290;28;20031;-73
2023/06/30 05:00:35;;;;;;;14.55;8.07;;;14.60;80.80;;;;;;4963954;28;20039;-75
2023/06/30 05:03:02;;;;;;;15.48;9.25;;;14.50;81.00;;;;;;4966469;28;20443;-73
2023/06/30 05:05:28;;;;;;;14.35;9.07;;;14.60;80.60;;;;;;4964478;28;20069;-72
2023/06/30 05:07:53;;;;;;;19.58;9.20;;;14.60;81.10;;;;;;4966339;28;20101;-74
2023/06/30 05:10:19;;;;;;;18.52;8.57;;;14.60;80.50;;;;;;4966749;28;20061;-74
2023/06/30 05:12:45;;;;;;;12.40;7.70;;;15.10;80.90;;;;;;4959917;28;20039;-74
2023/06/30 05:15:10;;;;;;;11.90;8.10;;;16.30;77.70;;;;;;4962660;28;20055;-73
2023/06/30 05:17:36;;;;;;;13.48;7.63;;;17.50;74.40;;;;;;4963671;28;20038;-72
2023/06/30 05:20:05;;;;;;;12.38;6.93;;;18.50;69.60;;;;;;4962933;28;20121;-73
2023/06/30 05:22:31;;;;;;;10.15;6.50;;;19.40;67.30;;;;;;4964810;28;20035;-73
2023/06/30 05:24:57;;;;;;;14.15;7.07;;;20.20;64.40;;;;;;4955408;28;20393;-74
2023/06/30 05:27:22;;;;;;;11.25;6.75;;;20.70;59.90;;;;;;4956829;28;20022;-72
2023/06/30 05:29:48;;;;;;;15.57;7.43;;;21.30;58.90;;;;;;4961519;28;20113;-73
2023/06/30 05:32:14;;;;;;;12.60;7.32;;;21.40;58.50;;;;;;4960772;28;20122;-74
2023/06/30 05:34:42;;;;;;;13.07;6.88;;;21.70;56.40;;;;;;4966656;28;20027;-75
2023/06/30 05:37:08;;;;;;;15.00;7.85;;;21.90;57.10;;;;;;4961766;28;20351;-72
2023/06/30 05:39:33;;;;;;;12.25;6.60;;;22.20;54.80;;;;;;4965242;28;20030;-74
2023/06/30 05:41:59;;;;;;;12.77;7.85;;;22.30;56.40;;;;;;4958315;28;20415;-72
2023/06/30 05:44:24;;;;;;;15.60;8.35;;;22.60;54.10;;;;;;4966799;28;20027;-73
2023/06/30 05:46:53;;;;;;;12.10;7.25;;;22.80;54.30;;;;;;4961593;28;20086;-74
2023/06/30 05:49:19;;;;;;;18.50;8.45;;;22.80;53.60;;;;;;4969017;28;20033;-72
2023/06/30 05:51:44;;;;;;;15.68;8.27;;;21.70;54.70;;;;;;4969273;28;20050;-75
2023/06/30 05:54:10;;;;;;;14.10;7.35;;;20.20;60.10;;;;;;4953695;28;20439;-76
2023/06/30 05:56:36;;;;;;;13.43;8.07;;;19.50;63.10;;;;;;4962063;28;20046;-74
2023/06/30 05:59:01;;;;;;;17.50;9.35;;;19.10;64.10;;;;;;4962609;28;20542;-73
2023/06/30 06:01:27;;;;;;;14.80;8.52;;;18.80;65.20;;;;;;4957476;28;20038;-73
2023/06/30 06:03:53;;;;;;;15.13;9.50;;;18.90;66.90;;;;;;4972587;28;20030;-73
2023/06/30 06:06:18;;;;;;;14.77;8.85;;;18.80;66.40;;;;;;4970814;28;20046;-74
2023/06/30 06:08:46;;;;;;;15.05;8.73;;;18.70;67.40;;;;;;4980776;28;20345;-74
2023/06/30 06:11:13;;;;;;;13.57;8.60;;;18.80;67.40;;;;;;4980822;28;20130;-74
2023/06/30 06:13:39;;;;;;;14.00;8.80;;;19.00;67.60;;;;;;4967979;28;20132;-74
2023/06/30 06:16:06;;;;;;;13.85;7.78;;;19.10;66.20;;;;;;4965230;28;20034;-75
2023/06/30 06:18:33;;;;;;;12.38;7.47;;;19.10;66.40;;;;;;4965750;28;20066;-76
2023/06/30 06:21:01;;;;;;;16.35;7.10;;;19.20;65.90;;;;;;4968687;28;21197;-73
2023/06/30 06:23:26;;;;;;;11.73;6.72;;;19.30;65.30;;;;;;4964575;28;20030;-74
2023/06/30 06:25:52;;;;;;;14.68;7.82;;;19.30;64.50;;;;;;4964971;28;20534;-74
2023/06/30 06:28:18;;;;;;;13.20;7.53;;;19.10;65.20;;;;;;4964569;28;20274;-73
2023/06/30 06:30:44;;;;;;;12.38;6.75;;;19.00;66.10;;;;;;4967383;28;20775;-73
2023/06/30 06:33:10;;;;;;;14.95;7.55;;;19.00;65.20;;;;;;4965268;28;20038;-74
2023/06/30 06:35:36;;;;;;;14.25;7.72;;;18.90;64.90;;;;;;4966641;28;20879;-73
2023/06/30 06:38:02;;;;;;;10.75;6.97;;;18.70;65.80;;;;;;4965294;28;20038;-75
2023/06/30 06:40:28;;;;;;;12.35;7.22;;;18.70;67.20;;;;;;4978407;28;20038;-74
2023/06/30 06:42:55;;;;;;;13.95;8.18;;;18.70;66.90;;;;;;4968493;28;20031;-75
2023/06/30 06:45:21;;;;;;;16.08;7.70;;;18.60;66.40;;;;;;4961819;28;20551;-75
2023/06/30 06:48:18;;;;;;;10.40;6.75;;;18.60;67.30;;;;;;4975902;28;20396;-75
2023/06/30 06:50:45;;;;;;;12.15;7.18;;;18.50;67.70;;;;;;4952496;28;20046;-74
2023/06/30 06:53:16;;;;;;;16.48;7.22;;;18.50;67.60;;;;;;4957664;28;20031;-72
2023/06/30 06:55:42;;;;;;;12.48;6.97;;;18.40;67.20;;;;;;4969850;28;20974;-74
2023/06/30 06:58:07;;;;;;;12.63;6.65;;;18.30;66.90;;;;;;4966581;28;20033;-73
2023/06/30 07:00:33;;;;;;;11.18;6.22;;;18.30;67.20;;;;;;4964855;28;20031;-74
2023/06/30 07:02:58;;;;;;;10.00;5.40;;;18.30;66.80;;;;;;4965052;28;20034;-74
2023/06/30 07:05:24;;;;;;;11.80;6.05;;;18.20;67.40;;;;;;4978071;28;20535;-75
2023/06/30 07:07:50;;;;;;;9.63;5.55;;;18.00;67.80;;;;;;4970645;28;20031;-73
2023/06/30 07:10:15;;;;;;;9.40;5.97;;;18.00;67.90;;;;;;4967988;28;20042;-73
2023/06/30 07:12:41;;;;;;;14.10;5.82;;;18.00;67.40;;;;;;4966445;28;20110;-74
2023/06/30 07:15:07;;;;;;;9.80;5.60;;;17.90;67.90;;;;;;4966152;28;20050;-74
2023/06/30 07:17:33;;;;;;;12.40;5.70;;;17.90;67.80;;;;;;4960778;28;20129;-74
2023/06/30 07:19:59;;;;;;;10.32;5.50;;;17.90;67.70;;;;;;4968287;28;20499;-74
2023/06/30 07:22:25;;;;;;;9.38;5.22;;;18.00;68.20;;;;;;4966605;28;20184;-75
2023/06/30 07:24:51;;;;;;;10.73;5.72;;;17.90;67.60;;;;;;4967172;28;20479;-73
2023/06/30 07:27:16;;;;;;;13.25;5.75;;;18.00;68.20;;;;;;4963206;28;20507;-75
2023/06/30 07:29:42;;;;;;;13.82;6.53;;;17.90;69.00;;;;;;4968932;28;20133;-74
2023/06/30 07:32:08;;;;;;;12.02;5.57;;;18.00;69.20;;;;;;4963799;28;20031;-73
2023/06/30 07:34:34;;;;;;;12.02;5.90;;;17.90;69.40;;;;;;4963621;28;20533;-74
2023/06/30 07:37:00;;;;;;;12.07;6.00;;;18.00;69.40;;;;;;4999585;28;20374;-73
2023/06/30 07:39:26;;;;;;;13.55;5.95;;;18.00;69.30;;;;;;4989634;28;20088;-74
2023/06/30 07:41:52;;;;;;;10.77;5.38;;;18.10;68.70;;;;;;4961116;28;20041;-75
2023/06/30 07:44:19;;;;;;;14.30;5.72;;;18.10;67.80;;;;;;4956393;28;20031;-73
2023/06/30 07:46:45;;;;;;;11.75;5.82;;;18.20;68.10;;;;;;4964967;28;20069;-75
2023/06/30 07:49:11;;;;;;;11.82;5.40;;;18.30;67.20;;;;;;4974703;28;20027;-75
2023/06/30 07:51:37;;;;;;;10.32;5.15;;;18.40;67.10;;;;;;4975910;28;20085;-74
2023/06/30 07:54:03;;;;;;;9.50;5.15;;;18.60;66.80;;;;;;4969755;28;20754;-76
2023/06/30 07:56:28;;;;;;;15.57;6.22;;;18.80;66.40;;;;;;4980455;28;20031;-74
2023/06/30 07:58:54;;;;;;;9.80;5.53;;;18.90;65.80;;;;;;4986845;28;20084;-75
2023/06/30 08:01:20;;;;;;;11.75;5.80;;;19.00;66.50;;;;;;4970062;28;20796;-75
2023/06/30 08:03:48;;;;;;;12.52;6.32;;;19.30;65.50;;;;;;4964625;28;20557;-75
2023/06/30 08:06:14;;;;;;;12.50;7.45;;;19.50;63.80;;;;;;4963980;28;20069;-76
2023/06/30 08:08:40;;;;;;;12.55;6.88;;;19.80;63.40;;;;;;4966190;28;20142;-74
2023/06/30 08:11:06;;;;;;;13.35;7.30;;;20.10;61.60;;;;;;4964613;28;20038;-74
2023/06/30 08:13:31;;;;;;;17.00;8.23;;;20.20;61.00;;;;;;4960279;28;20379;-74
2023/06/30 08:15:57;;;;;;;12.82;8.32;;;20.20;60.20;;;;;;4953314;28;20046;-75
2023/06/30 08:18:23;;;;;;;14.55;8.70;;;20.20;59.20;;;;;;4959766;28;20459;-74
2023/06/30 08:20:49;;;;;;;19.10;10.02;;;20.20;59.10;;;;;;4963628;28;20555;-73
2023/06/30 08:23:14;;;;;;;18.88;9.85;;;20.20;58.30;;;;;;4964290;28;20026;-73
2023/06/30 08:25:40;;;;;;;13.48;8.40;;;20.20;56.80;;;;;;4961672;28;20061;-74
2023/06/30 08:28:06;;;;;;;17.77;10.35;;;20.20;58.10;;;;;;4972826;28;20341;-74
2023/06/30 08:30:32;;;;;;;22.10;10.10;;;20.50;58.00;;;;;;4960489;28;20311;-73
2023/06/30 08:32:57;;;;;;;13.98;8.38;;;20.60;57.80;;;;;;4979527;28;20037;-73
2023/06/30 08:35:23;;;;;;;14.57;8.68;;;21.10;56.60;;;;;;4981792;28;20030;-74
2023/06/30 08:37:49;;;;;;;13.85;8.43;;;21.30;55.00;;;;;;4976774;28;20026;-77
2023/06/30 08:40:25;;;;;;;13.75;8.25;;;21.60;54.30;;;;;;4978721;28;20031;-73
2023/06/30 08:42:53;;;;;;;11.15;7.38;;;21.80;52.40;;;;;;4979521;28;20042;-76
2023/06/30 08:45:22;;;;;;;14.63;7.75;;;22.00;50.90;;;;;;4979443;28;20046;-78
2023/06/30 08:47:48;;;;;;;11.73;6.75;;;22.10;50.80;;;;;;4976832;28;20053;-80
2023/06/30 08:50:15;;;;;;;14.63;6.97;;;22.30;51.00;;;;;;4983890;28;20050;-80
2023/06/30 08:52:41;;;;;;;12.65;6.75;;;22.20;49.30;;;;;;4989704;28;20364;-81
2023/06/30 08:55:09;;;;;;;11.77;6.13;;;22.20;50.20;;;;;;4976940;28;20534;-76
2023/06/30 08:57:35;;;;;;;10.38;5.78;;;22.20;49.00;;;;;;4982003;28;20057;-78
2023/06/30 09:00:00;;;;;;;12.02;5.05;;;22.20;47.30;;;;;;4995798;28;20065;-78
2023/06/30 09:02:27;;;;;;;10.23;5.45;;;22.20;47.10;;;;;;4981706;28;20165;-77
2023/06/30 09:04:54;;;;;;;10.63;5.28;;;22.10;47.60;;;;;;4997066;28;20030;-77
2023/06/30 09:07:25;;;;;;;8.52;4.72;;;22.20;47.50;;;;;;4979418;28;20399;-81
2023/06/30 09:10:00;;;;;;;9.23;4.90;;;22.10;47.60;;;;;;4984752;28;20668;-81
2023/06/30 09:12:27;;;;;;;10.40;4.82;;;21.90;47.70;;;;;;4998963;28;20661;-82
2023/06/30 09:14:56;;;;;;;7.85;4.63;;;21.80;48.00;;;;;;4984849;28;20247;-81
2023/06/30 09:17:23;;;;;;;8.73;4.25;;;21.60;48.30;;;;;;4989717;28;20022;-80
2023/06/30 09:19:50;;;;;;;8.65;4.43;;;21.50;49.60;;;;;;5006386;28;20026;-82
2023/06/30 09:22:16;;;;;;;9.57;4.70;;;21.30;49.90;;;;;;4988757;28;20042;-77
2023/06/30 09:24:42;;;;;;;10.23;4.90;;;21.30;50.80;;;;;;4999123;28;20035;-77
2023/06/30 09:27:08;;;;;;;11.15;4.30;;;21.20;50.40;;;;;;4984878;28;20045;-75
2023/06/30 09:29:36;;;;;;;7.63;3.83;;;21.30;51.00;;;;;;4985809;28;20066;-76
2023/06/30 09:32:03;;;;;;;8.77;4.03;;;21.20;50.50;;;;;;4982711;28;20038;-79
2023/06/30 09:34:29;;;;;;;6.32;2.70;;;21.20;50.40;;;;;;4984993;28;20049;-76
2023/06/30 09:36:55;;;;;;;7.38;2.85;;;21.10;49.20;;;;;;4979270;28;20830;-76
2023/06/30 09:39:22;;;;;;;6.60;2.85;;;21.10;49.70;;;;;;4982125;28;20030;-76
2023/06/30 09:41:49;;;;;;;8.02;3.10;;;21.40;50.00;;;;;;4979510;28;20088;-79
2023/06/30 09:44:17;;;;;;;7.57;3.10;;;21.60;49.90;;;;;;4975920;28;20042;-77
2023/06/30 09:46:47;;;;;;;8.55;3.20;;;21.80;49.30;;;;;;4978001;28;20660;-78
2023/06/30 09:49:45;;;;;;;6.18;3.22;;;21.80;49.10;;;;;;4981908;28;20042;-77
2023/06/30 09:52:24;;;;;;;7.30;3.13;;;22.10;48.40;;;;;;4965400;28;20550;-76
2023/06/30 09:54:49;;;;;;;7.68;3.20;;;22.30;48.30;;;;;;4978013;28;20041;-80
2023/06/30 09:57:15;;;;;;;8.65;3.35;;;22.50;47.80;;;;;;4979135;28;20680;-78
2023/06/30 09:59:41;;;;;;;7.90;3.60;;;22.60;47.70;;;;;;4982427;28;20026;-78
2023/06/30 10:02:07;;;;;;;7.75;2.70;;;22.80;47.40;;;;;;4984156;28;20039;-78
2023/06/30 10:04:33;;;;;;;6.65;2.85;;;23.00;47.40;;;;;;4983038;28;20049;-76
2023/06/30 10:07:01;;;;;;;7.72;3.88;;;23.00;47.30;;;;;;4993065;28;20045;-77
2023/06/30 10:09:28;;;;;;;6.90;2.60;;;23.30;48.00;;;;;;4985495;28;20034;-77
2023/06/30 10:11:56;;;;;;;8.90;2.95;;;23.40;46.50;;;;;;4984898;28;20038;-80
2023/06/30 10:14:30;;;;;;;8.40;3.08;;;23.70;47.00;;;;;;4985972;28;20045;-75
2023/06/30 10:16:57;;;;;;;6.13;2.40;;;24.10;45.20;;;;;;4980005;28;20038;-76
2023/06/30 10:19:24;;;;;;;7.90;2.55;;;24.10;45.90;;;;;;4995419;28;20026;-78
2023/06/30 10:21:50;;;;;;;8.00;3.00;;;24.20;46.30;;;;;;4982232;28;20176;-76
2023/06/30 10:24:19;;;;;;;8.07;3.25;;;24.30;45.60;;;;;;4983949;28;20603;-76
2023/06/30 10:26:47;;;;;;;8.73;3.22;;;24.50;45.70;;;;;;4983579;28;20042;-79
2023/06/30 10:29:13;;;;;;;7.15;2.75;;;24.60;45.90;;;;;;4976491;28;20069;-76
2023/06/30 10:31:42;;;;;;;9.20;3.50;;;24.90;45.30;;;;;;4979709;28;20513;-73
2023/06/30 10:34:09;;;;;;;11.70;3.38;;;24.70;45.70;;;;;;4982514;28;20813;-76
2023/06/30 10:36:35;;;;;;;7.20;3.05;;;24.70;45.30;;;;;;4980425;28;21765;-76
2023/06/30 10:39:01;;;;;;;8.68;3.10;;;24.90;45.80;;;;;;4981755;28;20035;-76
2023/06/30 10:41:27;;;;;;;9.30;3.88;;;25.00;45.60;;;;;;4979528;28;20164;-75
2023/06/30 10:44:13;;;;;;;7.60;3.22;;;25.10;45.20;;;;;;4973469;28;20459;-79
2023/06/30 10:46:48;;;;;;;6.75;3.08;;;25.10;45.00;;;;;;4977176;28;20553;-76
2023/06/30 10:49:20;;;;;;;8.05;3.45;;;25.20;45.00;;;;;;4977331;28;20416;-79
2023/06/30 10:51:51;;;;;;;10.05;3.22;;;25.50;44.40;;;;;;4973591;28;20047;-75
2023/06/30 10:54:28;;;;;;;7.68;3.08;;;25.30;45.30;;;;;;4984008;28;20037;-78
2023/06/30 10:57:19;;;;;;;7.38;3.15;;;25.50;44.90;;;;;;4979924;28;20130;-76
2023/06/30 10:59:46;;;;;;;8.35;2.97;;;25.50;45.10;;;;;;4979902;28;20034;-74
2023/06/30 11:02:18;;;;;;;10.90;3.03;;;25.50;45.50;;;;;;5000917;28;20034;-75
2023/06/30 11:04:45;;;;;;;9.40;3.58;;;25.60;45.30;;;;;;4979040;28;20496;-76
2023/06/30 11:07:17;;;;;;;7.30;2.65;;;25.50;45.30;;;;;;4977345;28;20046;-79
2023/06/30 11:09:48;;;;;;;8.32;3.15;;;25.30;45.70;;;;;;4990474;28;20034;-81
2023/06/30 11:12:25;;;;;;;7.25;2.58;;;25.00;46.10;;;;;;4975586;28;20101;-77
2023/06/30 11:14:58;;;;;;;7.68;2.00;;;25.10;46.40;;;;;;4975641;28;20050;-80
2023/06/30 11:17:26;;;;;;;5.57;2.15;;;25.30;46.30;;;;;;4977350;28;20348;-76
2023/06/30 11:19:59;;;;;;;4.90;2.10;;;25.40;45.50;;;;;;4978175;28;20088;-79
2023/06/30 11:22:29;;;;;;;6.80;2.28;;;25.60;44.60;;;;;;4979984;28;20034;-76
2023/06/30 11:24:55;;;;;;;8.50;2.55;;;25.80;45.50;;;;;;4978023;28;20034;-78
2023/06/30 11:27:21;;;;;;;6.65;2.30;;;25.80;45.10;;;;;;4977596;28;20116;-81
2023/06/30 11:29:52;;;;;;;8.02;2.10;;;26.00;45.90;;;;;;4975004;28;20101;-77
2023/06/30 11:32:28;;;;;;;8.73;2.30;;;26.10;45.50;;;;;;4975858;28;20049;-77
2023/06/30 11:34:56;;;;;;;6.03;2.10;;;26.40;45.10;;;;;;4977896;28;20109;-76
2023/06/30 11:37:22;;;;;;;6.88;2.33;;;26.30;43.90;;;;;;4977820;28;20014;-83
2023/06/30 11:39:52;;;;;;;7.30;2.15;;;25.90;45.00;;;;;;4977551;28;20088;-76
2023/06/30 11:42:22;;;;;;;6.68;2.40;;;26.00;45.40;;;;;;4977966;28;20137;-76
2023/06/30 11:44:50;;;;;;;6.00;2.45;;;26.20;45.60;;;;;;4978988;28;20033;-78
2023/06/30 11:47:17;;;;;;;7.07;2.17;;;26.30;44.30;;;;;;4980407;28;20044;-78
2023/06/30 11:49:45;;;;;;;7.55;2.28;;;26.10;43.40;;;;;;4979725;28;20349;-77
2023/06/30 11:52:11;;;;;;;8.05;2.97;;;26.30;42.80;;;;;;4982776;28;20027;-76
2023/06/30 11:54:37;;;;;;;8.65;2.17;;;25.80;44.10;;;;;;4983201;28;20041;-77
2023/06/30 11:57:04;;;;;;;11.48;3.05;;;26.10;44.40;;;;;;4980574;28;20042;-75
2023/06/30 11:59:33;;;;;;;7.10;2.33;;;26.10;45.20;;;;;;4977970;28;20049;-81
2023/06/30 12:02:00;;;;;;;12.98;2.85;;;26.30;45.60;;;;;;4982244;28;20035;-75
2023/06/30 12:04:35;;;;;;;6.15;2.20;;;25.30;45.80;;;;;;4986417;28;20030;-75
2023/06/30 12:07:05;;;;;;;6.13;1.92;;;25.30;45.60;;;;;;4979288;28;20121;-79
2023/06/30 12:09:34;;;;;;;6.70;2.00;;;25.60;45.20;;;;;;4984824;28;20096;-82
2023/06/30 12:12:00;;;;;;;7.47;2.25;;;25.90;43.40;;;;;;4990545;28;20347;-79
2023/06/30 12:14:27;;;;;;;8.50;1.80;;;26.10;42.60;;;;;;4987620;28;20050;-79
2023/06/30 12:16:53;;;;;;;10.25;2.33;;;26.10;41.80;;;;;;4981597;28;20038;-80
2023/06/30 12:19:26;;;;;;;7.13;2.00;;;26.00;42.70;;;;;;4988190;28;20022;-80
2023/06/30 12:21:57;;;;;;;8.55;2.20;;;26.10;43.50;;;;;;4983502;28;20041;-80
2023/06/30 12:24:23;;;;;;;7.15;1.98;;;25.90;44.50;;;;;;4987820;28;20641;-81
2023/06/30 12:26:52;;;;;;;5.47;2.10;;;26.20;44.30;;;;;;4986266;28;20043;-78
2023/06/30 12:29:18;;;;;;;6.70;2.28;;;26.30;43.00;;;;;;4986633;28;20121;-78
2023/06/30 12:31:47;;;;;;;7.88;1.90;;;26.70;41.40;;;;;;4990209;28;20037;-82
2023/06/30 12:34:34;;;;;;;7.63;2.30;;;26.70;41.70;;;;;;4980500;28;20121;-79
2023/06/30 12:37:00;;;;;;;5.57;2.28;;;26.00;43.70;;;;;;4981691;28;20159;-78
2023/06/30 12:39:25;;;;;;;7.85;2.20;;;26.20;44.50;;;;;;4982116;28;20069;-79
2023/06/30 12:41:52;;;;;;;6.80;1.90;;;26.20;44.40;;;;;;4984055;28;20058;-80